Terminal Aerodrome Forecast
Issued by NWS

Home | Current Version | Previous Version | Text Only | Print | Product List | Glossary On
Versions: 1 2 3 4 5 6 7 8 9 10 11 12 13 14 15 16 17 18 19 20 21 22
000
FTUS43 KDLH 220300 AAB
TAFBRD
TAF AMD
KBRD 220343Z 2204/2224 19014KT P6SM -RA VCTS SCT010 BKN025CB
      TEMPO 2204/2206 VRB45KT 1SM TSRA OVC012CB
     FM220600 VRB06KT 4SM -RA BR SCT008 OVC025
     FM221400 36012G22KT P6SM SCT007 OVC015=

USA.gov is the U.S. government's official web portal to all federal, state and local government web resources and services.